ラロトンガ国際空港の過去48時間の天気

ラロトンガ国際空港 (Rarotonga)

現在時刻: 9/27 21:43 -10 (9/28 07:43 UTC) 以下の時間は現地時間です。

過去48時間のMETAR気象情報
時間 風向 風速(m/s) 視程 気温(℃) 湿度(%) 気圧(hPa) 天気現象
27 21:00 3 10km以上 22 78 1019
27 20:30 3 10km以上 22 73 1019
27 20:00 4 10km以上 22 78 1019
27 19:30 4 10km以上 22 78 1018
27 19:00 3 10km以上 22 78 1018
27 18:30 3 10km以上 23 73 1018
27 18:00 4 10km以上 23 73 1017
27 17:30 6 10km以上 23 73 1017
27 17:00 6 10km以上 24 69 1017
27 16:30 東南東 6 10km以上 24 69 1017
27 16:00 5 10km以上 24 69 1017
27 15:30 東南東 5 10km以上 24 65 1017
27 15:00 6 10km以上 25 69 1017
27 14:30 6 10km以上 25 65 1018
27 14:00 5 10km以上 25 65 1018
27 13:30 6 10km以上 25 61 1018
27 13:00 東南東 5 10km以上 25 65 1019
27 12:30 6 10km以上 24 69 1019
27 12:00 6 10km以上 25 65 1019
27 11:30 7 10km以上 24 69 1020
27 11:00 6 10km以上 24 69 1020
27 10:30 5 10km以上 24 69 1020
27 10:00 東南東 4 10km以上 24 74 1020
27 09:30 東南東 4 10km以上 24 74 1020
27 09:00 東南東 4 10km以上 23 73 1020
27 08:30 東南東 4 10km以上 23 73 1019
27 08:00 東南東 3 10km以上 22 78 1019
27 07:30 東南東 4 10km以上 22 78 1019
27 07:00 東南東 4 10km以上 22 78 1018
27 06:30 東南東 3 10km以上 21 78 1018
27 06:00 東南東 3 10km以上 22 73 1018
27 05:30 東南東 4 10km以上 22 73 1018
27 05:00 東南東 3 10km以上 21 83 1018
27 04:30 東南東 4 10km以上 21 83 1018
27 04:00 東南東 4 10km以上 22 78 1018
27 03:30 東南東 3 10km以上 22 73 1018
27 03:00 東南東 4 10km以上 22 73 1018
27 02:30 東南東 4 10km以上 22 73 1019
27 02:00 東南東 4 10km以上 22 78 1019
27 01:30 東南東 4 10km以上 22 78 1019
27 01:00 東南東 4 10km以上 22 78 1019
27 00:30 3 10km以上 21 83 1020
27 00:00 3 10km以上 20 94 1020
26 23:30 4 9000m 21 88 1020
26 23:00 3 10km以上 21 88 1020
26 22:30 3 10km以上 21 88 1020
26 22:00 4 10km以上 21 88 1020
26 21:30 東南東 4 10km以上 22 83 1020
26 21:00 東南東 4 10km以上 22 83 1019
26 20:30 東南東 4 10km以上 23 78 1019
26 20:00 東南東 3 10km以上 22 83 1019
26 19:30 東南東 4 10km以上 22 83 1018
26 19:00 4 10km以上 22 83 1018
26 18:30 4 10km以上 23 78 1018
26 18:00 3 10km以上 23 78 1018
26 17:30 東南東 3 10km以上 23 78 1018
26 17:00 東南東 3 10km以上 24 74 1017
26 16:30 5 10km以上 24 74 1017
26 16:00 4 10km以上 24 74 1017
26 15:30 東南東 3 10km以上 24 74 1017
26 15:00 東南東 4 10km以上 24 74 1017
26 14:30 南東 3 10km以上 24 74 1018
26 14:00 東南東 3 10km以上 23 78 1018
26 13:30 東南東 4 10km以上 23 78 1018
26 13:00 東南東 4 10km以上 23 78 1019
26 12:30 東南東 4 10km以上 24 74 1019
26 12:00 東南東 3 10km以上 24 74 1019
26 11:30 東南東 3 10km以上 24 78 1019
26 11:00 南東 3 10km以上 24 83 1020
26 10:30 東南東 4 10km以上 22 88 1020
26 10:00 東南東 4 10km以上 22 83 1020
26 09:30 東南東 3 10km以上 22 88 1020
26 09:00 東南東 3 10km以上 22 88 1020
26 08:30 東南東 4 10km以上 22 88 1019
26 08:00 東南東 3 10km以上 22 88 1019
26 07:30 4 10km以上 22 88 1019
26 07:00 東南東 3 10km以上 22 88 1018
26 06:30 東南東 3 10km以上 22 88 1018
26 06:00 東南東 2 10km以上 22 88 1018
26 05:30 3 10km以上 22 88 1017
26 05:00 南東 3 10km以上 22 88 1017
26 04:30 東南東 3 10km以上 22 88 1017
26 04:00 東南東 3 10km以上 22 88 1017
26 03:30 東南東 2 10km以上 22 88 1017
26 03:00 南南東 1 10km以上 22 88 1017
26 02:30 3 10km以上 22 88 1017
26 02:00 東南東 2 10km以上 22 88 1018
26 01:30 東南東 3 10km以上 22 88 1018
26 01:00 東南東 3 8000m 22 88 1018
26 00:30 3 10km以上 22 88 1018
26 00:00 東南東 3 9000m 22 94 1018
25 23:30 3 7000m 22 94 1018 弱い霧雨
25 23:00 3 6000m 22 94 1019 弱い霧雨
25 22:30 東北東 1 5000m 22 94 1019 弱い霧雨 もや
25 22:00 東南東 2 5000m 22 94 1019 弱い霧雨 煙霧
NCRG 280700Z AUTO 10005KT 060V130 9999 ///////// 22/18 Q1019
NCRG 280630Z AUTO 10005KT 070V140 9999 ///////// 22/17 Q1019
NCRG 280600Z AUTO 10007KT 9999 ///////// 22/18 Q1019
NCRG 280530Z AUTO 10008KT 080V140 9999 ///////// 22/18 Q1018
NCRG 280500Z AUTO 10006KT 060V140 9999 ///////// 22/18 Q1018
NCRG 280430Z AUTO 10006KT 070V140 9999 ///////// 23/18 Q1018
NCRG 280400Z AUTO 09008KT 070V160 9999 ///////// 23/18 Q1017
NCRG 280330Z AUTO 10011KT 070V140 9999 ///////// 23/18 Q1017
NCRG 280300Z AUTO 10012KT 070V130 9999 ///////// 24/18 Q1017
NCRG 280230Z AUTO 11011KT 070V160 9999 ///////// 24/18 Q1017
NCRG 280200Z AUTO 10010KT 080V140 9999 ///////// 24/18 Q1017
NCRG 280130Z AUTO 11009KT 070V140 9999 ///////// 24/17 Q1017
NCRG 280100Z AUTO 10012KT 9999 ///////// 25/19 Q1017
NCRG 280030Z AUTO 09011KT 9999 ///////// 25/18 Q1018
NCRG 280000Z AUTO 09010KT 9999 ///////// 25/18 Q1018
NCRG 272330Z AUTO 09011KT 9999 ///////// 25/17 Q1018
NCRG 272300Z AUTO 11010KT 080V150 9999 ///////// 25/18 Q1019
NCRG 272230Z AUTO 10012KT 080V150 9999 ///////// 24/18 Q1019
NCRG 272200Z AUTO 10012KT 9999 ///////// 25/18 Q1019
NCRG 272130Z AUTO 10014KT 080V140 9999 ///////// 24/18 Q1020
NCRG 272100Z AUTO 10012KT 9999 ///////// 24/18 Q1020
NCRG 272030Z AUTO 10010KT 070V160 9999 ///////// 24/18 Q1020
NCRG 272000Z AUTO 12008KT 080V160 9999 ///////// 24/19 Q1020
NCRG 271930Z AUTO 12008KT 080V150 9999 ///////// 24/19 Q1020
NCRG 271900Z AUTO 12008KT 080V150 9999 ///////// 23/18 Q1020
NCRG 271830Z AUTO 11008KT 080V150 9999 ///////// 23/18 Q1019
NCRG 271800Z AUTO 11005KT 070V150 9999 ///////// 22/18 Q1019
NCRG 271730Z AUTO 11008KT 9999 ///////// 22/18 Q1019
NCRG 271700Z AUTO 11007KT 9999 ///////// 22/18 Q1018
NCRG 271630Z AUTO 11005KT 060V160 9999 NCD 21/17 Q1018
NCRG 271600Z AUTO 12006KT 080V170 9999 SCT055/// 22/17 Q1018
NCRG 271530Z AUTO 11007KT 070V140 9999 BKN060/// 22/17 Q1018
NCRG 271500Z AUTO 11006KT 080V140 9999 SCT050/// 21/18 Q1018
NCRG 271430Z AUTO 12008KT 080V160 9999 OVC055/// 21/18 Q1018
NCRG 271400Z AUTO 11008KT 070V140 9999 OVC050/// 22/18 Q1018
NCRG 271330Z AUTO 12006KT 080V160 9999 OVC049/// 22/17 Q1018
NCRG 271300Z AUTO 11008KT 080V150 9999 OVC046/// 22/17 Q1018
NCRG 271230Z AUTO 11007KT 080V150 9999 OVC045/// 22/17 Q1019
NCRG 271200Z AUTO 12008KT 080V160 9999 BKN043/// 22/18 Q1019
NCRG 271130Z AUTO 12008KT 080V180 9999 FEW030/// BKN042/// BKN049/// 22/18 Q1019
NCRG 271100Z AUTO 12008KT 080V170 9999 BKN050/// 22/18 Q1019
NCRG 271030Z AUTO 10006KT 070V160 9999 SCT017/// BKN026/// 21/18 Q1020
NCRG 271000Z AUTO 10006KT 070V140 9999 SCT016/// BKN022/// OVC050/// 20/19 Q1020
NCRG 270930Z AUTO 09008KT 9000 FEW017/// SCT024/// OVC050/// 21/19 Q1020
NCRG 270900Z AUTO 10006KT 070V140 9999 FEW018/// SCT023/// BKN049/// 21/19 Q1020
NCRG 270830Z AUTO 10005KT 050V140 9999 FEW022/// BKN038/// 21/19 Q1020
NCRG 270800Z AUTO 09008KT 9999 OVC040/// 21/19 Q1020
NCRG 270730Z AUTO 11007KT 080V150 9999 OVC040/// 22/19 Q1020
NCRG 270700Z AUTO 11008KT 9999 OVC042/// 22/19 Q1019
NCRG 270630Z AUTO 11007KT 080V150 9999 BKN044/// 23/19 Q1019
NCRG 270600Z AUTO 11006KT 080V170 9999 SCT027/// SCT035/// OVC045/// 22/19 Q1019
NCRG 270530Z AUTO 11008KT 070V150 9999 FEW014/// SCT026/// OVC045/// 22/19 Q1018
NCRG 270500Z AUTO 10007KT 070V140 9999 FEW014/// BKN046/// OVC065/// 22/19 Q1018
NCRG 270430Z AUTO 10007KT 070V160 9999 BKN046/// 23/19 Q1018
NCRG 270400Z AUTO 10006KT 060V160 9999 FEW026/// SCT033/// OVC045/// 23/19 Q1018
NCRG 270330Z AUTO 12005KT 060V180 9999 FEW038/// OVC045/// 23/19 Q1018
NCRG 270300Z AUTO 11006KT 070V170 9999 FEW004/// BKN047/// OVC065/// 24/19 Q1017
NCRG 270230Z AUTO 10010KT 9999 FEW024/// BKN046/// 24/19 Q1017
NCRG 270200Z AUTO 09008KT 050V160 9999 BKN024/// BKN046/// 24/19 Q1017
NCRG 270130Z AUTO 12006KT 060V170 9999 FEW003/// BKN025/// 24/19 Q1017
NCRG 270100Z AUTO 12007KT 070V200 9999 BKN023/// BKN045/// 24/19 Q1017
NCRG 270030Z AUTO 13006KT 080V190 9999 BKN021/// 24/19 Q1018
NCRG 270000Z AUTO 12006KT 070V190 9999 BKN021/// OVC047/// 23/19 Q1018
NCRG 262330Z AUTO 12007KT 080V150 9999 SCT024/// BKN039/// OVC046/// 23/19 Q1018
NCRG 262300Z AUTO 12008KT 070V200 9999 BKN023/// BKN037/// OVC045/// 23/19 Q1019
NCRG 262230Z AUTO 12007KT 030V170 9999 SCT023/// OVC049/// 24/19 Q1019
NCRG 262200Z AUTO 12006KT 020V190 9999 BKN020/// 24/19 Q1019
NCRG 262130Z AUTO 12006KT 070V190 9999 BKN021/// OVC049/// 24/20 Q1019
NCRG 262100Z AUTO 14005KT 070V200 9999 BKN020/// 24/21 Q1020
NCRG 262030Z AUTO 12007KT 070V180 9999 BKN019/// 22/20 Q1020
NCRG 262000Z AUTO 12007KT 090V180 9999 SCT017/// BKN023/// BKN035/// 22/19 Q1020
NCRG 261930Z AUTO 12006G18KT 080V180 9999 FEW016/// BKN031/// OVC042/// 22/20 Q1020
NCRG 261900Z AUTO 12006KT 080V200 9999 SCT020/// BKN036/// OVC043/// 22/20 Q1020
NCRG 261830Z AUTO 12008KT 070V160 9999 FEW015/// BKN021/// OVC040/// 22/20 Q1019
NCRG 261800Z AUTO 12006KT 9999 BKN018/// OVC038/// 22/20 Q1019
NCRG 261730Z AUTO 08007KT 030V140 9999 FEW016/// SCT021/// BKN038/// 22/20 Q1019
NCRG 261700Z AUTO 11006KT 070V140 9999 FEW013/// BKN019/// BKN039/// 22/20 Q1018
NCRG 261630Z AUTO 11006KT 070V170 9999 BKN018/// 22/20 Q1018
NCRG 261600Z AUTO 11003KT 9999 OVC016/// 22/20 Q1018
NCRG 261530Z AUTO 10005KT 070V150 9999 BKN020/// 22/20 Q1017
NCRG 261500Z AUTO 13006KT 080V180 9999 SCT019/// BKN043/// OVC050/// 22/20 Q1017
NCRG 261430Z AUTO 12005KT 070V180 9999 FEW017/// SCT022/// BKN044/// 22/20 Q1017
NCRG 261400Z AUTO 11006KT 080V160 9999 BKN019/// BKN044/// 22/20 Q1017
NCRG 261330Z AUTO 12004KT 070V170 9999 BKN019/// BKN044/// 22/20 Q1017
NCRG 261300Z AUTO 15002KT 9999 BKN019/// OVC049/// 22/20 Q1017
NCRG 261230Z AUTO 10006KT 070V150 9999 BKN017/// 22/20 Q1017
NCRG 261200Z AUTO 11004KT 070V190 9999 BKN018/// 22/20 Q1018
NCRG 261130Z AUTO 12006KT 9999 BKN019/// 22/20 Q1018
NCRG 261100Z AUTO 11006KT 8000 BKN017/// BKN022/// 22/20 Q1018
NCRG 261030Z AUTO 10005KT 040V160 9999 BKN018/// 22/20 Q1018
NCRG 261000Z AUTO 12005KT 050V180 9000 BKN017/// 22/21 Q1018
NCRG 260930Z AUTO 10006KT 050V140 7000 -DZ BKN016/// 22/21 Q1018
NCRG 260900Z AUTO 10005KT 060V150 6000 -DZ BKN018/// OVC024/// 22/21 Q1019
NCRG 260830Z AUTO 06002KT 5000 -DZ BR SCT018/// BKN023/// BKN037/// 22/21 Q1019
NCRG 260800Z AUTO 11004KT 030V160 5000 -DZ HZ SCT017/// BKN022/// BKN036/// 22/21 Q1019